Time;durP1;ratioP1;P1;durP2;ratioP2;P2;SDS_P1;SDS_P2;PMS_P1;PMS_P2;Temp;Humidity;BMP_temperature;BMP_pressure;BME280_temperature;BME280_humidity;BME280_pressure;Samples;Min_cycle;Max_cycle;Signal;HPM_P1;HPM_P2
2023/07/01 00:01:42;;;;;;;9.27;8.47;;;;;;;16.14;100.00;97110.47;6218294;28;20711;-53
2023/07/01 00:04:44;;;;;;;9.57;8.53;;;;;;;16.09;100.00;97110.53;6215451;28;20248;-53
2023/07/01 00:07:47;;;;;;;11.60;9.37;;;;;;;16.09;100.00;97112.44;6215071;28;20236;-52
2023/07/01 00:10:49;;;;;;;9.77;8.97;;;;;;;15.68;100.00;97057.41;6223370;28;20602;-52
2023/07/01 00:13:51;;;;;;;10.83;9.87;;;;;;;15.96;100.00;97097.84;6221184;28;20608;-51
2023/07/01 00:16:54;;;;;;;10.10;9.13;;;;;;;15.93;100.00;97095.75;6216112;28;20237;-53
2023/07/01 00:19:56;;;;;;;9.80;8.90;;;;;;;15.90;100.00;97099.78;6216185;28;20706;-54
2023/07/01 00:22:59;;;;;;;11.00;9.90;;;;;;;15.90;100.00;97093.63;6226402;28;20722;-54
2023/07/01 00:26:01;;;;;;;11.10;9.77;;;;;;;15.91;100.00;97096.03;6222237;28;20266;-53
2023/07/01 00:29:03;;;;;;;9.57;8.67;;;;;;;15.77;100.00;97071.00;6222770;28;20232;-53
2023/07/01 00:32:06;;;;;;;9.40;8.57;;;;;;;15.89;100.00;97095.50;6217993;28;20232;-54
2023/07/01 00:35:09;;;;;;;14.17;9.33;;;;;;;15.89;100.00;97086.66;6223989;28;20236;-53
2023/07/01 00:38:11;;;;;;;9.83;8.80;;;;;;;15.86;100.00;97080.00;6223155;28;20717;-53
2023/07/01 00:41:14;;;;;;;8.80;8.10;;;;;;;15.85;100.00;97086.44;6220889;28;20220;-52
2023/07/01 00:44:17;;;;;;;9.50;8.47;;;;;;;15.84;100.00;97084.84;6219570;28;20228;-54
2023/07/01 00:47:19;;;;;;;10.63;9.63;;;;;;;15.84;100.00;97082.16;6217818;28;20231;-53
2023/07/01 00:50:21;;;;;;;10.00;8.37;;;;;;;15.68;100.00;97045.88;6221464;28;20231;-52
2023/07/01 00:53:24;;;;;;;8.90;8.10;;;;;;;15.84;100.00;97079.47;6224493;28;20226;-52
2023/07/01 00:56:26;;;;;;;9.17;8.30;;;;;;;15.77;100.00;97064.81;6222015;28;20318;-52
2023/07/01 00:59:28;;;;;;;9.93;8.77;;;;;;;15.81;100.00;97072.00;6220367;28;20326;-53
2023/07/01 01:02:51;;;;;;;9.20;8.33;;;;;;;15.83;100.00;97069.03;6221941;28;20229;-52
2023/07/01 01:06:16;;;;;;;9.10;8.23;;;;;;;15.80;100.00;97062.34;6220884;28;20736;-51
2023/07/01 01:09:22;;;;;;;11.27;9.40;;;;;;;15.76;100.00;97055.16;6259773;28;20223;-54
2023/07/01 01:12:27;;;;;;;9.20;8.30;;;;;;;15.74;100.00;97055.44;6261615;28;20608;-60
2023/07/01 01:15:29;;;;;;;10.10;9.10;;;;;;;15.71;100.00;97051.47;6259779;28;20237;-62
2023/07/01 01:18:33;;;;;;;8.60;7.80;;;;;;;15.69;100.00;97050.94;6276454;28;20235;-56
2023/07/01 01:21:36;;;;;;;9.17;8.37;;;;;;;15.68;100.00;97052.03;6243587;28;20310;-51
2023/07/01 01:24:42;;;;;;;10.33;9.30;;;;;;;15.65;100.00;97049.91;6245139;28;20227;-56
2023/07/01 01:27:45;;;;;;;10.30;9.40;;;;;;;15.65;100.00;97054.50;6245412;28;20702;-56
2023/07/01 01:30:47;;;;;;;9.83;9.03;;;;;;;15.60;100.00;97047.28;6245164;28;20612;-54
2023/07/01 01:33:50;;;;;;;10.93;9.90;;;;;;;15.70;100.00;97044.47;6242863;28;20245;-52
2023/07/01 01:36:57;;;;;;;11.70;10.53;;;;;;;15.55;100.00;97023.19;6245096;28;20823;-51
2023/07/01 01:40:10;;;;;;;11.40;10.30;;;;;;;15.71;100.00;97046.09;6243216;28;20314;-53
2023/07/01 01:43:38;;;;;;;11.23;10.10;;;;;;;15.73;100.00;97043.91;6242660;28;20246;-49
2023/07/01 01:46:41;;;;;;;16.20;14.43;;;;;;;15.60;100.00;97008.88;6246029;28;20226;-53
2023/07/01 01:49:48;;;;;;;14.97;13.40;;;;;;;15.87;100.00;97045.88;6244430;28;20228;-53
2023/07/01 01:52:52;;;;;;;13.53;12.13;;;;;;;15.88;100.00;97026.78;6242313;28;20233;-52
2023/07/01 01:55:56;;;;;;;15.20;13.53;;;;;;;15.88;100.00;97037.50;6243464;28;20236;-53
2023/07/01 01:58:59;;;;;;;17.40;14.23;;;;;;;15.87;100.00;97027.88;6243172;28;20321;-54
2023/07/01 02:02:01;;;;;;;16.20;14.43;;;;;;;15.97;100.00;97033.09;6242623;28;20326;-54
2023/07/01 02:05:04;;;;;;;16.60;13.87;;;;;;;15.99;100.00;97027.41;6248194;28;20232;-52
2023/07/01 02:08:06;;;;;;;13.67;12.40;;;;;;;15.97;100.00;97038.47;6244346;28;20239;-53
2023/07/01 02:11:08;;;;;;;19.90;16.40;;;;;;;15.96;100.00;97039.56;6241607;28;20247;-52
2023/07/01 02:14:11;;;;;;;16.50;14.77;;;;;;;15.97;100.00;97035.78;6245049;28;20235;-53
2023/07/01 02:17:13;;;;;;;16.83;15.17;;;;;;;15.85;100.00;97024.66;6241560;28;20320;-53
2023/07/01 02:20:16;;;;;;;21.47;15.63;;;;;;;16.05;100.00;97036.19;6231670;28;20227;-52
2023/07/01 02:23:18;;;;;;;16.07;13.87;;;;;;;15.97;100.00;97041.16;6241289;28;20227;-54
2023/07/01 02:26:20;;;;;;;15.93;14.10;;;;;;;16.00;100.00;97039.75;6255035;28;20227;-52
2023/07/01 02:29:22;;;;;;;16.43;13.07;;;;;;;15.94;100.00;97024.81;6244312;28;20278;-54
2023/07/01 02:32:25;;;;;;;14.00;12.70;;;;;;;16.05;100.00;97045.03;6243038;28;20238;-52
2023/07/01 02:35:27;;;;;;;13.63;12.33;;;;;;;16.04;100.00;97042.66;6242616;28;20231;-52
2023/07/01 02:38:29;;;;;;;15.87;14.27;;;;;;;16.04;100.00;97045.34;6233737;28;20223;-54
2023/07/01 02:41:31;;;;;;;14.73;13.43;;;;;;;15.76;100.00;97004.91;6243755;28;20243;-52
2023/07/01 02:44:33;;;;;;;12.90;11.53;;;;;;;16.00;100.00;97048.59;6242198;28;20719;-52
2023/07/01 02:47:36;;;;;;;14.20;12.73;;;;;;;16.01;100.00;97041.38;6243664;28;20231;-54
2023/07/01 02:50:39;;;;;;;16.17;13.13;;;;;;;16.04;100.00;97048.81;6244238;28;20712;-53
2023/07/01 02:53:41;;;;;;;13.50;12.10;;;;;;;16.03;100.00;97049.13;6245418;28;20240;-52
2023/07/01 02:56:43;;;;;;;14.10;12.50;;;;;;;16.03;100.00;97041.84;6244557;28;20223;-53
2023/07/01 02:59:48;;;;;;;14.37;12.73;;;;;;;16.04;100.00;97038.06;6241860;28;20239;-52
2023/07/01 03:02:52;;;;;;;14.60;12.90;;;;;;;16.02;100.00;97044.84;6240907;28;20238;-53
2023/07/01 03:05:54;;;;;;;14.83;13.07;;;;;;;16.02;100.00;97042.16;6243000;28;20605;-53
2023/07/01 03:08:56;;;;;;;15.97;12.23;;;;;;;16.02;100.00;97052.91;6240271;28;20235;-54
2023/07/01 03:11:59;;;;;;;15.13;13.57;;;;;;;15.85;100.00;97024.66;6241438;28;20267;-52
2023/07/01 03:15:01;;;;;;;13.87;12.40;;;;;;;15.77;100.00;97013.78;6240586;28;20242;-52
2023/07/01 03:18:03;;;;;;;14.30;13.10;;;;;;;16.03;100.00;97043.75;6236327;28;20239;-52
2023/07/01 03:21:05;;;;;;;13.93;12.53;;;;;;;16.04;100.00;97050.72;6235166;28;20666;-54
2023/07/01 03:24:07;;;;;;;13.90;12.50;;;;;;;16.05;100.00;97047.72;6246093;28;20229;-52
2023/07/01 03:27:09;;;;;;;14.17;12.77;;;;;;;15.88;100.00;97016.03;6242551;28;20228;-53
2023/07/01 03:30:16;;;;;;;14.27;12.90;;;;;;;16.07;100.00;97045.56;6245847;28;20211;-53
2023/07/01 03:33:18;;;;;;;14.27;12.90;;;;;;;16.07;100.00;97045.56;6242326;28;20215;-53
2023/07/01 03:36:21;;;;;;;14.23;12.73;;;;;;;16.11;100.00;97051.16;6239822;28;20234;-54
2023/07/01 03:39:23;;;;;;;14.70;13.17;;;;;;;15.94;100.00;97024.81;6243039;28;20231;-54
2023/07/01 03:42:25;;;;;;;13.40;12.20;;;;;;;16.13;100.00;97055.13;6240924;28;20231;-53
2023/07/01 03:45:27;;;;;;;13.87;11.33;;;;;;;16.15;100.00;97055.63;6243901;28;20674;-54
2023/07/01 03:48:29;;;;;;;13.90;12.70;;;;;;;16.18;100.00;97052.38;6242064;28;20220;-54
2023/07/01 03:51:32;;;;;;;17.97;16.03;;;;;;;16.27;100.00;97051.72;6237410;28;20227;-53
2023/07/01 03:54:34;;;;;;;19.13;15.77;;;;;;;16.31;100.00;97052.72;6241435;28;20231;-54
2023/07/01 03:57:37;;;;;;;15.57;13.73;;;;;;;16.36;100.00;97058.00;6244272;28;20227;-54
2023/07/01 04:00:39;;;;;;;15.30;13.67;;;;;;;16.40;100.00;97048.25;6247514;28;20227;-53
2023/07/01 04:03:41;;;;;;;16.10;14.07;;;;;;;16.45;100.00;97056.22;6236585;28;20235;-53
2023/07/01 04:06:44;;;;;;;16.67;13.57;;;;;;;16.54;100.00;97057.16;6248859;28;20230;-54
2023/07/01 04:09:46;;;;;;;13.23;11.93;;;;;;;16.69;100.00;97046.13;6246960;28;20237;-55
2023/07/01 04:12:48;;;;;;;13.00;11.30;;;;;;;16.90;100.00;97041.22;6245445;28;20235;-52
2023/07/01 04:15:50;;;;;;;13.93;11.07;;;;;;;17.01;99.83;97044.50;6242297;28;20232;-54
2023/07/01 04:18:52;;;;;;;11.33;10.23;;;;;;;17.22;96.92;97042.19;6246715;28;20330;-54
2023/07/01 04:21:54;;;;;;;11.13;10.03;;;;;;;17.21;97.40;97046.78;6248393;28;20219;-54
2023/07/01 04:24:57;;;;;;;13.07;11.10;;;;;;;17.22;99.20;97047.59;6248465;28;20709;-55
2023/07/01 04:28:01;;;;;;;11.20;9.10;;;;;;;17.24;98.01;97056.16;6245989;28;20696;-54
2023/07/01 04:31:03;;;;;;;11.67;10.20;;;;;;;17.32;95.51;97057.34;6248398;28;20296;-54
2023/07/01 04:34:05;;;;;;;17.30;9.90;;;;;;;17.19;97.51;97035.53;6244448;28;20223;-54
2023/07/01 04:37:08;;;;;;;11.10;10.00;;;;;;;17.27;96.79;97061.75;6247101;28;20325;-53
2023/07/01 04:40:11;;;;;;;10.73;9.33;;;;;;;17.31;97.17;97058.47;6242583;28;20625;-55
2023/07/01 04:43:14;;;;;;;10.03;9.03;;;;;;;17.14;97.99;97030.25;6245831;28;20585;-54
2023/07/01 04:46:16;;;;;;;11.33;9.43;;;;;;;17.35;96.80;97054.06;6245362;28;20231;-55
2023/07/01 04:49:18;;;;;;;12.10;9.60;;;;;;;17.32;98.83;97058.16;6247805;28;20219;-55
2023/07/01 04:52:22;;;;;;;14.17;11.53;;;;;;;17.31;97.47;97056.56;6244305;28;20639;-55
2023/07/01 04:55:24;;;;;;;11.00;9.57;;;;;;;17.31;99.58;97053.06;6245314;28;20735;-54
2023/07/01 04:58:26;;;;;;;11.63;10.17;;;;;;;17.32;98.03;97060.03;6248839;28;20250;-54
2023/07/01 05:01:28;;;;;;;10.37;9.37;;;;;;;17.18;99.86;97038.50;6243879;28;20242;-55
2023/07/01 05:04:31;;;;;;;11.00;10.00;;;;;;;17.35;100.00;97064.84;6245514;28;20826;-55
2023/07/01 05:07:33;;;;;;;10.30;9.30;;;;;;;17.33;100.00;97061.63;6244172;28;20245;-55
2023/07/01 05:10:35;;;;;;;13.10;9.90;;;;;;;17.30;100.00;97059.56;6244365;28;20233;-55
2023/07/01 05:13:37;;;;;;;11.20;10.10;;;;;;;17.28;100.00;97071.41;6244321;28;20714;-55
2023/07/01 05:16:40;;;;;;;12.07;10.50;;;;;;;17.28;100.00;97074.09;6241899;28;20247;-55
2023/07/01 05:19:42;;;;;;;12.80;10.27;;;;;;;17.26;100.00;97053.97;6244473;28;20586;-55
2023/07/01 05:22:44;;;;;;;11.73;10.27;;;;;;;17.26;100.00;97068.22;6248845;28;20234;-55
2023/07/01 05:25:46;;;;;;;10.83;9.83;;;;;;;17.27;100.00;97069.03;6247614;28;20333;-56
2023/07/01 05:28:48;;;;;;;11.77;10.57;;;;;;;17.27;100.00;97075.19;6244534;28;20231;-55
2023/07/01 05:31:50;;;;;;;11.60;10.43;;;;;;;17.28;100.00;97068.72;6243731;28;20585;-55
2023/07/01 05:34:53;;;;;;;12.13;10.93;;;;;;;17.34;100.00;97076.69;6241217;28;20231;-56
2023/07/01 05:37:55;;;;;;;12.33;11.13;;;;;;;17.37;100.00;97076.09;6245299;28;20231;-56
2023/07/01 05:40:57;;;;;;;12.83;11.43;;;;;;;17.32;100.00;97070.81;6243767;28;20236;-56
2023/07/01 05:43:59;;;;;;;15.00;11.07;;;;;;;17.39;100.00;97084.66;6244256;28;20227;-56
2023/07/01 05:47:04;;;;;;;11.17;10.07;;;;;;;17.44;100.00;97090.75;6245539;28;20998;-56
2023/07/01 05:50:07;;;;;;;11.80;10.70;;;;;;;17.45;100.00;97089.66;6246212;28;20597;-56
2023/07/01 05:53:09;;;;;;;15.60;13.60;;;;;;;17.44;100.00;97085.38;6243348;28;20724;-56
2023/07/01 05:56:11;;;;;;;10.63;9.53;;;;;;;17.50;100.00;97091.44;6246568;28;20234;-56
2023/07/01 05:59:13;;;;;;;15.40;13.00;;;;;;;17.62;97.14;97096.31;6243787;28;20714;-55
2023/07/01 06:02:15;;;;;;;11.43;10.30;;;;;;;17.75;98.36;97092.84;6243215;28;20716;-56
2023/07/01 06:05:18;;;;;;;11.87;10.60;;;;;;;17.87;98.87;97103.88;6243212;28;20227;-56
2023/07/01 06:08:20;;;;;;;12.67;11.30;;;;;;;17.93;95.91;97101.88;6243909;28;20231;-56
2023/07/01 06:11:22;;;;;;;13.03;11.57;;;;;;;18.00;94.53;97111.16;6243317;28;20595;-56
2023/07/01 06:14:25;;;;;;;14.77;10.93;;;;;;;18.04;96.03;97103.25;6243537;28;20719;-56
2023/07/01 06:17:27;;;;;;;10.90;9.83;;;;;;;18.07;97.56;97108.03;6239657;28;20227;-56
2023/07/01 06:20:29;;;;;;;11.83;10.57;;;;;;;18.05;98.77;97108.34;6239187;28;20231;-56
2023/07/01 06:23:31;;;;;;;14.17;11.77;;;;;;;18.03;92.28;97083.59;6245380;28;20238;-55
2023/07/01 06:26:33;;;;;;;12.47;10.87;;;;;;;18.30;90.29;97098.88;6241668;28;20239;-56
2023/07/01 06:29:35;;;;;;;14.33;10.80;;;;;;;18.26;92.51;97086.28;6242080;28;20232;-56
2023/07/01 06:32:37;;;;;;;12.70;10.57;;;;;;;18.42;90.91;97100.22;6241549;28;20227;-56
2023/07/01 06:35:41;;;;;;;11.17;10.07;;;;;;;18.59;86.92;97104.94;6242891;28;20237;-56
2023/07/01 06:38:46;;;;;;;10.67;9.57;;;;;;;18.59;88.53;97100.34;6239646;28;20705;-56
2023/07/01 06:41:49;;;;;;;12.13;10.80;;;;;;;18.47;86.65;97086.59;6244503;28;20759;-56
2023/07/01 06:44:51;;;;;;;9.67;8.43;;;;;;;18.69;85.80;97094.72;6238116;28;20603;-56
2023/07/01 06:47:53;;;;;;;11.10;9.90;;;;;;;18.70;87.17;97101.72;6246656;28;20731;-55
2023/07/01 06:50:55;;;;;;;11.87;9.90;;;;;;;18.78;84.35;97108.28;6243321;28;20333;-56
2023/07/01 06:53:57;;;;;;;11.03;9.93;;;;;;;18.75;85.06;97109.66;6243999;28;20246;-56
2023/07/01 06:57:00;;;;;;;11.93;10.10;;;;;;;18.78;83.96;97111.75;6242867;28;20697;-56
2023/07/01 07:00:03;;;;;;;13.87;11.60;;;;;;;18.76;83.45;97111.25;6241772;28;20234;-56
2023/07/01 07:03:05;;;;;;;12.33;10.23;;;;;;;18.80;83.16;97106.84;6229684;28;20757;-58
2023/07/01 07:06:07;;;;;;;11.83;10.53;;;;;;;18.66;88.50;97097.19;6243625;28;20707;-60
2023/07/01 07:09:09;;;;;;;12.17;10.13;;;;;;;18.71;84.12;97110.59;6241201;28;20301;-60
2023/07/01 07:12:11;;;;;;;11.43;9.80;;;;;;;18.73;83.60;97101.09;6240536;28;20218;-58
2023/07/01 07:15:14;;;;;;;11.17;9.07;;;;;;;18.80;84.71;97106.06;6245144;28;20231;-57
2023/07/01 07:18:16;;;;;;;10.07;9.07;;;;;;;18.85;85.03;97097.03;6239386;28;20237;-57
2023/07/01 07:21:18;;;;;;;10.50;9.40;;;;;;;18.95;85.32;97096.75;6238984;28;20223;-56
2023/07/01 07:24:21;;;;;;;13.60;10.60;;;;;;;19.06;83.21;97100.78;6245519;28;20673;-57
2023/07/01 07:27:23;;;;;;;11.67;10.07;;;;;;;19.14;83.63;97091.94;6243632;28;20253;-56
2023/07/01 07:30:25;;;;;;;13.10;9.97;;;;;;;19.21;83.91;97102.28;6240679;28;20704;-56
2023/07/01 07:33:28;;;;;;;14.53;12.43;;;;;;;19.45;79.99;97105.38;6244659;28;20232;-57
2023/07/01 07:36:30;;;;;;;12.13;10.93;;;;;;;19.39;82.00;97097.75;6238643;28;20780;-57
2023/07/01 07:39:33;;;;;;;14.07;12.57;;;;;;;19.43;79.20;97074.41;6243642;28;20242;-57
2023/07/01 07:42:35;;;;;;;15.03;12.20;;;;;;;19.45;81.10;97101.88;6241956;28;20234;-58
2023/07/01 07:45:38;;;;;;;13.93;12.13;;;;;;;19.55;79.43;97110.50;6242242;28;20607;-56
2023/07/01 07:48:40;;;;;;;16.60;13.33;;;;;;;19.57;80.13;97108.28;6245048;28;20223;-56
2023/07/01 07:51:43;;;;;;;14.43;12.80;;;;;;;19.55;79.79;97104.28;6240276;28;20597;-58
2023/07/01 07:54:46;;;;;;;15.20;12.90;;;;;;;19.57;80.56;97112.91;6239004;28;20231;-56
2023/07/01 07:57:49;;;;;;;13.60;12.20;;;;;;;19.70;80.37;97113.91;6242507;28;20238;-56
2023/07/01 08:00:51;;;;;;;16.17;12.50;;;;;;;19.57;78.57;97086.69;6245165;28;20227;-56
2023/07/01 08:03:53;;;;;;;12.57;11.30;;;;;;;19.76;78.57;97120.78;6242716;28;20269;-55
2023/07/01 08:06:57;;;;;;;13.80;10.93;;;;;;;19.53;80.33;97115.44;6240255;28;20234;-55
2023/07/01 08:09:59;;;;;;;13.13;11.80;;;;;;;19.48;82.70;97120.19;6237693;28;20793;-56
2023/07/01 08:13:01;;;;;;;13.03;11.70;;;;;;;19.53;82.91;97118.13;6241677;28;20592;-56
2023/07/01 08:16:04;;;;;;;12.87;11.57;;;;;;;19.59;81.66;97122.31;6237981;28;20239;-56
2023/07/01 08:19:06;;;;;;;13.23;11.67;;;;;;;19.59;81.24;97118.78;6245409;28;20616;-56
2023/07/01 08:22:09;;;;;;;14.60;12.73;;;;;;;19.63;82.44;97121.69;6237538;28;20319;-55
2023/07/01 08:25:11;;;;;;;17.47;14.30;;;;;;;19.76;79.69;97121.56;6243217;28;20239;-57
2023/07/01 08:28:13;;;;;;;15.50;13.90;;;;;;;19.51;82.86;97112.25;6239115;28;20238;-58
2023/07/01 08:31:15;;;;;;;15.80;13.13;;;;;;;19.45;84.15;97112.69;6240980;28;20227;-58
2023/07/01 08:34:17;;;;;;;14.93;13.37;;;;;;;19.43;85.41;97114.91;6240962;28;20223;-58
2023/07/01 08:37:19;;;;;;;14.23;11.90;;;;;;;19.44;85.97;97111.91;6240831;28;20709;-58
2023/07/01 08:40:22;;;;;;;16.10;13.33;;;;;;;19.44;86.58;97108.41;6247082;28;20724;-58
2023/07/01 08:43:27;;;;;;;14.47;12.80;;;;;;;19.46;86.27;97114.31;6244597;28;20718;-58
2023/07/01 08:46:29;;;;;;;24.17;16.23;;;;;;;18.94;86.79;97041.19;6242770;28;20219;-56
2023/07/01 08:49:32;;;;;;;16.93;12.97;;;;;;;19.28;88.46;97110.72;6245465;28;20227;-57
2023/07/01 08:53:02;;;;;;;13.73;12.30;;;;;;;19.35;89.30;97124.56;6241763;28;20235;-52
2023/07/01 08:56:05;;;;;;;15.57;12.73;;;;;;;19.39;87.16;97122.06;6243648;28;20751;-57
2023/07/01 08:59:09;;;;;;;15.27;12.43;;;;;;;19.34;85.91;97104.06;6245645;28;20305;-57
2023/07/01 09:02:12;;;;;;;16.47;12.47;;;;;;;19.48;84.36;97122.88;6244803;28;20265;-57
2023/07/01 09:05:15;;;;;;;14.80;12.90;;;;;;;19.47;83.48;97121.28;6255060;28;20313;-57
2023/07/01 09:08:18;;;;;;;15.00;12.37;;;;;;;19.54;82.36;97125.13;6243796;28;20723;-57
2023/07/01 09:11:20;;;;;;;18.13;13.10;;;;;;;19.60;82.13;97131.19;6242978;28;20688;-57
2023/07/01 09:14:22;;;;;;;17.27;13.07;;;;;;;19.49;81.19;97097.44;6248233;28;20233;-56
2023/07/01 09:17:29;;;;;;;14.10;12.00;;;;;;;19.73;82.60;97122.19;6251077;28;20727;-56
2023/07/01 09:20:33;;;;;;;13.23;11.70;;;;;;;19.67;82.79;97101.03;6249215;28;20313;-55
2023/07/01 09:23:36;;;;;;;13.23;11.87;;;;;;;19.84;81.28;97119.97;6253491;28;20593;-55
2023/07/01 09:26:39;;;;;;;13.53;11.17;;;;;;;19.88;82.44;97122.84;6243654;28;20294;-55
2023/07/01 09:29:42;;;;;;;12.53;11.27;;;;;;;19.86;84.96;97117.78;6248405;28;20223;-56
2023/07/01 09:32:44;;;;;;;16.07;13.97;;;;;;;19.89;84.57;97119.03;6249708;28;20603;-54
2023/07/01 09:35:46;;;;;;;15.00;12.67;;;;;;;19.90;84.79;97107.91;6252776;28;20223;-54
2023/07/01 09:38:53;;;;;;;14.77;13.07;;;;;;;19.83;85.13;97111.06;6241938;28;20304;-52
2023/07/01 09:42:05;;;;;;;17.30;14.20;;;;;;;19.84;83.97;97106.47;6245687;28;20224;-54
2023/07/01 09:45:08;;;;;;;16.27;13.23;;;;;;;19.82;80.24;97098.69;6242873;28;20676;-54
2023/07/01 09:48:12;;;;;;;18.17;13.63;;;;;;;19.86;81.86;97112.38;6253237;28;20600;-52
2023/07/01 09:51:15;;;;;;;15.83;13.27;;;;;;;19.81;83.29;97107.91;6247653;28;20310;-54
2023/07/01 09:54:29;;;;;;;16.50;14.17;;;;;;;19.78;82.91;97113.13;6243581;28;20210;-53
2023/07/01 09:57:31;;;;;;;15.97;12.87;;;;;;;19.90;83.51;97107.09;6242312;28;20236;-50
2023/07/01 10:00:34;;;;;;;17.00;14.27;;;;;;;19.86;82.60;97104.25;6250548;28;20736;-53
2023/07/01 10:03:37;;;;;;;15.07;13.47;;;;;;;19.93;82.34;97107.28;6241769;28;20605;-52
2023/07/01 10:06:44;;;;;;;14.83;12.70;;;;;;;19.94;81.98;97099.94;6244277;28;20226;-51
2023/07/01 10:09:47;;;;;;;13.80;12.30;;;;;;;20.00;82.10;97104.91;6247092;28;20343;-53
2023/07/01 10:12:52;;;;;;;16.83;14.77;;;;;;;20.10;80.74;97110.00;6240887;28;20605;-53
2023/07/01 10:15:56;;;;;;;16.60;14.37;;;;;;;20.18;78.08;97094.09;6244296;28;20236;-52
2023/07/01 10:19:00;;;;;;;14.80;12.93;;;;;;;20.19;77.90;97101.88;6250360;28;20262;-52
2023/07/01 10:22:22;;;;;;;14.73;13.23;;;;;;;20.12;79.28;97096.16;6249078;28;20297;-54
2023/07/01 10:25:34;;;;;;;13.97;12.43;;;;;;;20.04;81.25;97088.81;6242900;28;20223;-50
2023/07/01 10:28:37;;;;;;;15.40;13.80;;;;;;;20.00;80.18;97087.88;6247723;28;20226;-54
2023/07/01 10:31:39;;;;;;;16.20;13.87;;;;;;;19.97;79.79;97083.91;6245787;28;20285;-53
2023/07/01 10:34:53;;;;;;;17.40;14.43;;;;;;;19.95;79.59;97094.25;6244118;28;20230;-53
2023/07/01 10:38:21;;;;;;;16.33;14.07;;;;;;;19.92;80.51;97088.66;6247821;28;20712;-54
2023/07/01 10:41:51;;;;;;;14.90;12.90;;;;;;;19.91;80.31;97087.09;6244483;28;20227;-54
2023/07/01 10:45:14;;;;;;;14.63;13.10;;;;;;;19.87;82.07;97081.50;6247948;28;20243;-53
2023/07/01 10:48:16;;;;;;;16.07;14.27;;;;;;;19.82;81.13;97078.97;6244658;28;20733;-53
2023/07/01 10:51:18;;;;;;;15.93;14.23;;;;;;;19.83;80.24;97089.44;6243584;28;20218;-53
2023/07/01 10:54:31;;;;;;;15.90;14.20;;;;;;;19.82;80.00;97087.06;6248347;28;20211;-50
2023/07/01 10:57:33;;;;;;;16.33;14.43;;;;;;;19.90;79.09;97085.47;6237500;28;20220;-51
2023/07/01 11:00:36;;;;;;;16.40;14.53;;;;;;;19.93;78.16;97077.53;6230135;28;20239;-52
2023/07/01 11:03:38;;;;;;;19.07;14.93;;;;;;;19.95;78.64;97079.91;6247385;28;20708;-53
2023/07/01 11:06:51;;;;;;;16.23;14.00;;;;;;;19.92;82.09;97078.66;6237257;28;20223;-53
2023/07/01 11:09:54;;;;;;;16.70;14.50;;;;;;;20.01;78.67;97070.56;6241877;28;20241;-50
2023/07/01 11:13:02;;;;;;;16.70;14.07;;;;;;;20.02;79.39;97072.94;6242963;28;20243;-54
2023/07/01 11:16:05;;;;;;;17.47;15.57;;;;;;;20.09;77.33;97077.84;6241645;28;20726;-54
2023/07/01 11:19:09;;;;;;;18.13;14.40;;;;;;;20.08;78.17;97076.28;6245561;28;20326;-54
2023/07/01 11:22:13;;;;;;;17.53;13.97;;;;;;;20.17;78.18;97068.94;6245174;28;20235;-53
2023/07/01 11:25:15;;;;;;;16.93;15.13;;;;;;;20.24;77.72;97074.66;6242305;28;20258;-53
2023/07/01 11:28:37;;;;;;;18.43;14.23;;;;;;;20.22;79.02;97060.69;6243954;28;20711;-53
2023/07/01 11:31:41;;;;;;;18.23;14.67;;;;;;;20.23;80.34;97059.56;6244519;28;20805;-54
2023/07/01 11:34:49;;;;;;;18.33;15.90;;;;;;;20.40;79.18;97064.19;6244726;28;20222;-54
2023/07/01 11:37:54;;;;;;;17.03;14.90;;;;;;;20.28;78.96;97059.41;6238595;28;20250;-53
2023/07/01 11:40:56;;;;;;;16.03;14.30;;;;;;;20.30;79.68;97057.19;6243133;28;20242;-54
2023/07/01 11:43:58;;;;;;;19.47;15.77;;;;;;;20.32;78.59;97057.66;6238458;28;20720;-54
2023/07/01 11:47:00;;;;;;;18.83;16.30;;;;;;;20.27;77.85;97048.91;6241553;28;20284;-54
2023/07/01 11:50:04;;;;;;;18.17;16.03;;;;;;;20.25;78.63;97054.63;6242246;28;20227;-53
2023/07/01 11:53:06;;;;;;;16.57;14.63;;;;;;;20.30;79.89;97056.38;6245611;28;20227;-51
2023/07/01 11:56:18;;;;;;;14.37;12.77;;;;;;;20.22;80.47;97039.03;6248408;28;20231;-51
2023/07/01 11:59:30;;;;;;;15.13;13.23;;;;;;;20.35;82.22;97062.44;6250174;28;21081;-50
2023/07/01 12:02:33;;;;;;;17.17;15.03;;;;;;;20.27;81.10;97052.41;6241499;28;20233;-53
2023/07/01 12:05:35;;;;;;;14.83;13.27;;;;;;;20.34;81.74;97062.72;6237438;28;20235;-50
2023/07/01 12:08:57;;;;;;;16.70;14.27;;;;;;;20.37;83.57;97053.97;6238817;28;20223;-51
2023/07/01 12:12:11;;;;;;;17.30;15.33;;;;;;;20.23;79.23;97034.41;6240807;28;20223;-52
2023/07/01 12:15:15;;;;;;;17.63;15.73;;;;;;;20.40;78.25;97050.66;6238732;28;20618;-50
2023/07/01 12:18:27;;;;;;;19.13;16.70;;;;;;;20.46;75.42;97046.66;6241902;28;20226;-52
2023/07/01 12:21:29;;;;;;;18.77;15.30;;;;;;;20.55;76.58;97050.16;6245837;28;20231;-53
2023/07/01 12:24:32;;;;;;;18.83;15.33;;;;;;;20.46;76.64;97030.41;6246003;28;20234;-51
2023/07/01 12:27:35;;;;;;;16.93;15.13;;;;;;;20.61;78.51;97053.50;6240481;28;20312;-51
2023/07/01 12:30:37;;;;;;;16.63;14.73;;;;;;;20.61;74.52;97056.19;6232907;28;20227;-50
2023/07/01 12:33:39;;;;;;;17.70;15.50;;;;;;;20.42;75.08;97032.16;6243897;28;20234;-52
2023/07/01 12:36:45;;;;;;;15.73;13.97;;;;;;;20.54;76.12;97048.59;6244523;28;21000;-53
2023/07/01 12:39:51;;;;;;;15.33;13.40;;;;;;;20.51;77.32;97038.41;6241969;28;20786;-52
2023/07/01 12:42:54;;;;;;;18.13;13.53;;;;;;;20.51;78.61;97041.09;6244175;28;20881;-52
2023/07/01 12:45:56;;;;;;;15.60;14.00;;;;;;;20.35;79.44;97021.84;6241507;28;20792;-54
2023/07/01 12:49:00;;;;;;;14.77;13.20;;;;;;;20.51;79.66;97038.41;6247041;28;20606;-51
2023/07/01 12:52:03;;;;;;;15.53;13.83;;;;;;;20.57;79.92;97036.31;6243599;28;20621;-53
2023/07/01 12:55:09;;;;;;;18.60;14.00;;;;;;;20.60;75.03;97028.34;6239352;28;20226;-51
2023/07/01 12:58:11;;;;;;;14.73;13.23;;;;;;;20.67;74.74;97035.97;6244967;28;20727;-52
2023/07/01 13:01:13;;;;;;;17.37;14.87;;;;;;;20.68;73.57;97045.66;6243526;28;20232;-53
2023/07/01 13:04:18;;;;;;;13.80;12.40;;;;;;;20.69;74.68;97036.44;6246622;28;20219;-54
2023/07/01 13:07:20;;;;;;;14.93;13.17;;;;;;;20.70;75.91;97043.44;6240769;28;20702;-53
2023/07/01 13:10:22;;;;;;;14.40;12.83;;;;;;;20.68;76.10;97042.16;6240028;28;20235;-53
2023/07/01 13:13:24;;;;;;;15.30;13.03;;;;;;;20.67;75.16;97046.78;6242629;28;20266;-53
2023/07/01 13:16:34;;;;;;;14.23;12.70;;;;;;;20.68;76.18;97053.00;6247074;28;20907;-52
2023/07/01 13:19:36;;;;;;;14.23;12.70;;;;;;;20.64;78.51;97057.47;6244697;28;20339;-54
2023/07/01 13:22:39;;;;;;;13.63;12.30;;;;;;;20.60;81.84;97051.91;6242895;28;20762;-52
2023/07/01 13:25:41;;;;;;;14.23;12.83;;;;;;;20.63;82.17;97053.97;6243416;28;20237;-54
2023/07/01 13:28:44;;;;;;;14.10;12.70;;;;;;;20.57;83.11;97055.25;6242501;28;20579;-54
2023/07/01 13:31:49;;;;;;;13.90;12.33;;;;;;;20.53;82.46;97065.91;6243336;28;20239;-53
2023/07/01 13:34:53;;;;;;;15.70;12.17;;;;;;;20.49;73.77;97056.88;6243522;28;20239;-53
2023/07/01 13:38:06;;;;;;;12.97;11.33;;;;;;;20.52;76.22;97058.13;6241012;28;20241;-53
2023/07/01 13:41:08;;;;;;;11.70;10.37;;;;;;;20.33;72.91;97053.81;6239707;28;20235;-52
2023/07/01 13:44:22;;;;;;;12.77;10.07;;;;;;;20.28;75.65;97056.69;6243133;28;20235;-54
2023/07/01 13:47:47;;;;;;;9.83;8.83;;;;;;;20.16;69.84;97047.66;6241987;28;21491;-53
2023/07/01 13:50:51;;;;;;;12.23;8.70;;;;;;;20.08;69.00;97055.44;6245432;28;20231;-53
2023/07/01 13:53:54;;;;;;;11.83;8.43;;;;;;;20.09;67.04;97045.41;6244988;28;20227;-54
2023/07/01 13:56:59;;;;;;;11.47;7.73;;;;;;;19.93;69.10;97050.50;6242748;28;20609;-53
2023/07/01 14:00:07;;;;;;;8.80;7.17;;;;;;;19.90;70.59;97037.63;6242219;28;20732;-53
2023/07/01 14:03:36;;;;;;;8.87;7.47;;;;;;;19.83;73.87;97062.41;6240632;28;20228;-52
2023/07/01 14:06:39;;;;;;;8.60;7.40;;;;;;;19.76;72.48;97045.88;6242445;28;20268;-52